Time;durP1;ratioP1;P1;durP2;ratioP2;P2;SDS_P1;SDS_P2;PMS_P1;PMS_P2;Temp;Humidity;BMP_temperature;BMP_pressure;BME280_temperature;BME280_humidity;BME280_pressure;Samples;Min_cycle;Max_cycle;Signal;HPM_P1;HPM_P2
2021/12/10 00:01:16;;;;;;;45.47;26.52;;;4.70;99.90;;;;;;5092926;28;20042;-63
2021/12/10 00:03:47;;;;;;;39.55;25.58;;;4.70;99.90;;;;;;5091314;28;20710;-62
2021/12/10 00:06:23;;;;;;;40.65;24.30;;;4.70;99.90;;;;;;5092851;28;20046;-63
2021/12/10 00:08:59;;;;;;;40.35;25.85;;;4.70;99.90;;;;;;5092817;28;20040;-63
2021/12/10 00:11:56;;;;;;;41.95;26.02;;;4.80;99.90;;;;;;5092887;28;20119;-62
2021/12/10 00:14:26;;;;;;;46.00;25.17;;;4.80;99.90;;;;;;5050115;28;20180;-63
2021/12/10 00:16:53;;;;;;;45.53;25.63;;;4.70;99.90;;;;;;5050262;28;20041;-63
2021/12/10 00:19:35;;;;;;;41.13;24.25;;;4.70;99.90;;;;;;5050206;28;20055;-63
2021/12/10 00:22:06;;;;;;;35.08;23.90;;;4.70;99.90;;;;;;5033600;28;20041;-63
2021/12/10 00:24:32;;;;;;;41.97;23.15;;;4.70;99.90;;;;;;5050281;28;20135;-63
2021/12/10 00:26:59;;;;;;;42.25;22.60;;;4.80;99.90;;;;;;5050212;28;20534;-63
2021/12/10 00:29:25;;;;;;;38.22;22.83;;;4.80;99.90;;;;;;5049903;28;20107;-63
2021/12/10 00:32:00;;;;;;;32.65;21.65;;;4.70;99.90;;;;;;5049837;28;20486;-62
2021/12/10 00:34:44;;;;;;;41.92;23.45;;;4.80;99.90;;;;;;5049854;28;20049;-63
2021/12/10 00:37:13;;;;;;;38.15;21.48;;;4.80;99.90;;;;;;5049933;28;20049;-63
2021/12/10 00:39:41;;;;;;;;;;;4.80;99.90;;;;;;5050258;28;20045;-62
2021/12/10 00:42:11;;;;;;;34.67;21.55;;;4.80;99.90;;;;;;5049845;28;19917;-63
2021/12/10 00:44:37;;;;;;;35.47;19.25;;;4.80;99.90;;;;;;5049805;28;20049;-63
2021/12/10 00:47:03;;;;;;;37.67;20.20;;;4.80;99.90;;;;;;5049686;28;20049;-63
2021/12/10 00:49:29;;;;;;;34.33;19.63;;;4.80;99.90;;;;;;5049686;28;20052;-63
2021/12/10 00:51:55;;;;;;;35.75;20.77;;;4.80;99.90;;;;;;5091266;28;20036;-62
2021/12/10 00:54:21;;;;;;;33.15;19.77;;;4.80;99.90;;;;;;5092110;28;20040;-63
2021/12/10 00:56:47;;;;;;;35.58;20.30;;;4.80;99.90;;;;;;5091931;28;20040;-62
2021/12/10 00:59:14;;;;;;;31.75;18.33;;;4.80;99.90;;;;;;5092055;28;20028;-63
2021/12/10 01:01:41;;;;;;;30.38;19.75;;;4.80;99.90;;;;;;5091894;28;20044;-63
2021/12/10 01:04:19;;;;;;;37.70;20.65;;;4.80;99.90;;;;;;5092206;28;20044;-62
2021/12/10 01:06:49;;;;;;;36.10;19.13;;;4.90;99.90;;;;;;5092104;28;20450;-63
2021/12/10 01:09:19;;;;;;;30.67;18.95;;;4.90;99.90;;;;;;5092114;28;20055;-63
2021/12/10 01:11:51;;;;;;;36.53;18.92;;;4.90;99.90;;;;;;5091106;28;20075;-62
2021/12/10 01:14:35;;;;;;;34.28;19.70;;;4.90;99.90;;;;;;5091754;28;20040;-63
2021/12/10 01:25:37;;;;;;;31.73;19.25;;;4.90;99.90;;;;;;5091901;28;20048;-62
2021/12/10 01:28:05;;;;;;;34.25;19.42;;;4.90;99.90;;;;;;5092011;28;20044;-62
2021/12/10 01:30:35;;;;;;;35.30;19.90;;;4.90;99.90;;;;;;5091951;28;20389;-63
2021/12/10 01:33:21;;;;;;;34.05;19.17;;;4.90;99.90;;;;;;5091591;28;20093;-63
2021/12/10 01:35:53;;;;;;;35.92;18.85;;;4.90;99.90;;;;;;5091787;28;20032;-63
2021/12/10 01:38:21;;;;;;;29.10;18.90;;;4.90;99.90;;;;;;5091684;28;20046;-63
2021/12/10 01:40:53;;;;;;;31.38;18.65;;;4.80;99.90;;;;;;5091676;28;20039;-63
2021/12/10 01:43:23;;;;;;;28.17;17.48;;;4.90;99.90;;;;;;5091553;28;20039;-63
2021/12/10 01:46:06;;;;;;;32.20;16.90;;;4.90;99.90;;;;;;5107630;28;20040;-62
2021/12/10 01:48:39;;;;;;;29.58;17.25;;;4.90;99.90;;;;;;5091595;28;20036;-63
2021/12/10 01:51:07;;;;;;;30.70;17.23;;;4.90;99.90;;;;;;5091639;28;20413;-64
2021/12/10 01:53:36;;;;;;;30.13;16.05;;;4.90;99.90;;;;;;5091293;28;20493;-63
2021/12/10 01:56:06;;;;;;;;;;;4.90;99.90;;;;;;5092029;28;20825;-63
2021/12/10 01:58:32;;;;;;;29.95;15.10;;;5.00;99.90;;;;;;5091647;28;19916;-62
2021/12/10 02:01:11;;;;;;;23.65;14.50;;;4.90;99.90;;;;;;5091622;28;20032;-62
2021/12/10 02:03:37;;;;;;;23.50;13.73;;;4.90;99.90;;;;;;5092611;28;20056;-63
2021/12/10 02:06:05;;;;;;;26.67;11.98;;;4.90;99.90;;;;;;5095096;28;20101;-63
2021/12/10 02:08:31;;;;;;;18.70;11.43;;;4.80;99.90;;;;;;5095017;28;20050;-63
2021/12/10 02:10:57;;;;;;;23.10;11.75;;;4.80;99.90;;;;;;5093780;28;20371;-61
2021/12/10 02:13:23;;;;;;;19.63;11.43;;;4.80;99.90;;;;;;5095068;28;20047;-63
2021/12/10 02:15:48;;;;;;;25.02;12.30;;;4.80;99.90;;;;;;5094990;27;20096;-63
2021/12/10 02:18:15;;;;;;;24.60;12.20;;;4.80;99.90;;;;;;5095023;28;20072;-64
2021/12/10 02:20:50;;;;;;;27.95;13.98;;;4.80;99.90;;;;;;5094941;28;20103;-63
2021/12/10 02:23:16;;;;;;;28.45;13.75;;;4.80;99.90;;;;;;5094743;28;20466;-63
2021/12/10 02:25:42;;;;;;;23.02;14.63;;;4.80;99.90;;;;;;5094777;28;20044;-63
2021/12/10 02:28:10;;;;;;;29.08;14.60;;;4.80;99.90;;;;;;5093714;28;20074;-63
2021/12/10 02:30:39;;;;;;;21.55;13.35;;;4.80;99.90;;;;;;5094966;28;20115;-63
2021/12/10 02:33:06;;;;;;;26.70;13.45;;;4.80;99.90;;;;;;5094545;28;20040;-63
2021/12/10 02:35:34;;;;;;;28.98;13.80;;;4.80;99.90;;;;;;5093399;28;20471;-63
2021/12/10 02:38:00;;;;;;;27.70;13.40;;;4.70;99.90;;;;;;5094548;28;20047;-62
2021/12/10 02:40:29;;;;;;;23.60;13.00;;;4.70;99.90;;;;;;5093433;28;20036;-63
2021/12/10 02:42:57;;;;;;;28.73;13.82;;;4.70;99.90;;;;;;5094666;28;20040;-62
2021/12/10 02:45:24;;;;;;;21.95;12.55;;;4.70;99.90;;;;;;5094510;28;20036;-62
2021/12/10 02:47:51;;;;;;;23.55;12.23;;;4.70;99.90;;;;;;5093454;28;20044;-63
2021/12/10 02:50:20;;;;;;;21.52;12.82;;;4.70;99.90;;;;;;5094389;28;20043;-62
2021/12/10 02:52:46;;;;;;;;;;;4.70;99.90;;;;;;5094908;28;20040;-63
2021/12/10 02:55:15;;;;;;;32.08;13.60;;;4.60;99.90;;;;;;5094624;28;20715;-63
2021/12/10 02:57:42;;;;;;;24.45;12.32;;;4.60;99.90;;;;;;5094193;28;20082;-62
2021/12/10 03:00:12;;;;;;;27.90;13.70;;;4.60;99.90;;;;;;5094115;28;20039;-62
2021/12/10 03:02:38;;;;;;;29.33;12.65;;;4.60;99.90;;;;;;5093835;28;20055;-63
2021/12/10 03:05:07;;;;;;;22.80;12.38;;;4.60;99.90;;;;;;5093904;28;20048;-62
2021/12/10 03:07:33;;;;;;;28.00;12.98;;;4.70;99.90;;;;;;5094084;28;20086;-62
2021/12/10 03:10:00;;;;;;;24.23;13.30;;;4.60;99.90;;;;;;5094122;28;20043;-62
2021/12/10 03:12:25;;;;;;;22.98;12.63;;;4.70;99.90;;;;;;5093826;28;20036;-62
2021/12/10 03:14:56;;;;;;;22.55;12.35;;;4.70;99.90;;;;;;5093089;28;20097;-63
2021/12/10 03:17:25;;;;;;;25.02;14.35;;;4.70;99.90;;;;;;5094061;28;20036;-63
2021/12/10 03:19:52;;;;;;;22.52;14.23;;;4.70;99.90;;;;;;5092594;28;20473;-62
2021/12/10 03:22:18;;;;;;;28.75;13.98;;;4.70;99.90;;;;;;5109757;28;20040;-62
2021/12/10 03:24:44;;;;;;;28.27;14.40;;;4.70;99.90;;;;;;5093819;28;20042;-63
2021/12/10 03:27:11;;;;;;;23.90;13.88;;;4.70;99.90;;;;;;5093515;28;20089;-61
2021/12/10 03:29:39;;;;;;;29.60;14.32;;;4.70;99.90;;;;;;5093595;28;20043;-62
2021/12/10 03:32:08;;;;;;;21.02;14.02;;;4.60;99.90;;;;;;5093730;28;20039;-62
2021/12/10 03:34:34;;;;;;;31.05;15.07;;;4.60;99.90;;;;;;5093492;28;20114;-62
2021/12/10 03:37:01;;;;;;;25.58;14.57;;;4.60;99.90;;;;;;5093426;28;20044;-62
2021/12/10 03:39:27;;;;;;;26.33;15.52;;;4.60;99.90;;;;;;5093409;28;20394;-63
2021/12/10 03:41:56;;;;;;;29.10;14.45;;;4.60;99.90;;;;;;5093261;28;20036;-62
2021/12/10 03:44:21;;;;;;;30.70;14.13;;;4.60;99.90;;;;;;5093255;28;20482;-62
2021/12/10 03:46:48;;;;;;;28.40;14.93;;;4.50;99.90;;;;;;5093436;28;20043;-62
2021/12/10 03:49:15;;;;;;;28.00;14.43;;;4.60;99.90;;;;;;5093158;28;20032;-62
2021/12/10 03:51:41;;;;;;;28.27;14.15;;;4.50;99.90;;;;;;5093194;28;20071;-62
2021/12/10 03:54:09;;;;;;;24.13;14.15;;;4.60;99.90;;;;;;5093118;28;20036;-62
2021/12/10 03:56:37;;;;;;;25.85;14.73;;;4.50;99.90;;;;;;5092960;28;20111;-62
2021/12/10 03:59:08;;;;;;;29.55;14.50;;;4.50;99.90;;;;;;5093262;28;20136;-62
2021/12/10 04:01:37;;;;;;;22.60;13.57;;;4.60;99.90;;;;;;5093018;28;20445;-62
2021/12/10 04:04:07;;;;;;;24.70;13.48;;;4.50;99.90;;;;;;5092754;28;20048;-62
2021/12/10 04:06:32;;;;;;;27.08;13.63;;;4.60;99.90;;;;;;5092895;28;20051;-62
2021/12/10 04:08:59;;;;;;;27.10;14.05;;;4.50;99.90;;;;;;5091534;28;20043;-62
2021/12/10 04:11:27;;;;;;;31.05;14.10;;;4.60;99.90;;;;;;5092689;28;20118;-62
2021/12/10 04:13:54;;;;;;;25.15;15.48;;;4.50;99.90;;;;;;5092752;28;20044;-62
2021/12/10 04:16:21;;;;;;;25.17;14.50;;;4.60;99.90;;;;;;5092834;28;20036;-62
2021/12/10 04:18:49;;;;;;;31.83;16.17;;;4.60;99.90;;;;;;5091556;28;20093;-63
2021/12/10 04:21:16;;;;;;;29.90;14.83;;;4.60;99.90;;;;;;5092630;28;20470;-62
2021/12/10 04:23:42;;;;;;;23.77;15.75;;;4.50;99.90;;;;;;5092508;28;20055;-62
2021/12/10 04:26:11;;;;;;;28.70;15.48;;;4.50;99.90;;;;;;5091986;28;20438;-62
2021/12/10 04:28:36;;;;;;;23.88;15.48;;;4.50;99.90;;;;;;5092152;28;20047;-62
2021/12/10 04:31:02;;;;;;;23.38;14.32;;;4.50;99.90;;;;;;5092486;28;20044;-62
2021/12/10 04:33:28;;;;;;;27.17;16.60;;;4.50;99.90;;;;;;5092315;28;20048;-62
2021/12/10 04:35:58;;;;;;;26.80;17.35;;;4.50;99.90;;;;;;5092496;28;20047;-62
2021/12/10 04:38:26;;;;;;;23.42;16.35;;;4.50;99.90;;;;;;5092326;28;20040;-62
2021/12/10 04:40:54;;;;;;;27.42;17.95;;;4.50;99.90;;;;;;5092370;28;20116;-62
2021/12/10 04:43:23;;;;;;;30.70;17.20;;;4.40;99.90;;;;;;5092562;28;20104;-62
2021/12/10 04:45:51;;;;;;;25.40;16.47;;;4.40;99.90;;;;;;5092452;28;20039;-62
2021/12/10 04:48:16;;;;;;;25.45;16.27;;;4.40;99.90;;;;;;5092304;28;20451;-62
2021/12/10 04:50:42;;;;;;;28.80;17.95;;;4.30;99.90;;;;;;5092334;28;20043;-62
2021/12/10 04:53:10;;;;;;;25.30;16.58;;;4.30;99.90;;;;;;5092073;28;20097;-62
2021/12/10 04:55:37;;;;;;;25.58;18.08;;;4.30;99.90;;;;;;5092299;28;20809;-62
2021/12/10 04:58:04;;;;;;;25.77;17.55;;;4.20;99.90;;;;;;5092292;28;20039;-62
2021/12/10 05:00:44;;;;;;;26.77;17.65;;;4.10;99.90;;;;;;5092507;28;20040;-62
2021/12/10 05:03:10;;;;;;;31.75;18.52;;;4.20;99.90;;;;;;5091724;28;20055;-62
2021/12/10 05:05:38;;;;;;;29.00;19.90;;;4.10;99.90;;;;;;5091915;28;20473;-62
2021/12/10 05:08:05;;;;;;;27.48;19.13;;;4.00;99.90;;;;;;5092146;28;20115;-62
2021/12/10 05:10:31;;;;;;;31.50;19.45;;;4.00;99.90;;;;;;5091907;28;20028;-62
2021/12/10 05:12:56;;;;;;;27.92;18.27;;;3.90;99.90;;;;;;5091980;28;20435;-62
2021/12/10 05:15:25;;;;;;;26.25;19.27;;;3.90;99.90;;;;;;5091935;28;20075;-62
2021/12/10 05:17:52;;;;;;;29.87;17.33;;;3.90;99.90;;;;;;5091835;28;20424;-62
2021/12/10 05:20:32;;;;;;;27.98;18.45;;;3.80;99.90;;;;;;5091873;28;20406;-62
2021/12/10 05:22:57;;;;;;;29.60;18.37;;;3.70;99.90;;;;;;5091820;28;20486;-62
2021/12/10 05:25:27;;;;;;;28.52;17.65;;;3.80;99.90;;;;;;5090580;28;20097;-62
2021/12/10 05:27:53;;;;;;;27.00;16.95;;;3.70;99.90;;;;;;5091781;28;20089;-62
2021/12/10 05:30:22;;;;;;;28.50;17.00;;;3.70;99.90;;;;;;5091797;28;20089;-62
2021/12/10 05:32:48;;;;;;;27.27;17.23;;;3.70;99.90;;;;;;5091641;28;20044;-62
2021/12/10 05:35:15;;;;;;;24.98;18.30;;;3.70;99.90;;;;;;5091567;28;20397;-62
2021/12/10 05:37:41;;;;;;;27.40;17.13;;;3.70;99.90;;;;;;5091763;28;20420;-62
2021/12/10 05:40:12;;;;;;;24.42;16.23;;;3.60;99.90;;;;;;5095488;28;20039;-62
2021/12/10 05:42:39;;;;;;;24.60;17.23;;;3.60;99.90;;;;;;5095509;28;20036;-62
2021/12/10 05:45:06;;;;;;;26.33;17.17;;;3.60;99.90;;;;;;5095342;28;20075;-62
2021/12/10 05:47:31;;;;;;;24.60;17.45;;;3.60;99.90;;;;;;5111665;28;20466;-62
2021/12/10 05:49:57;;;;;;;26.70;17.35;;;3.60;99.90;;;;;;5095595;28;20036;-62
2021/12/10 05:52:23;;;;;;;27.58;17.20;;;3.50;99.90;;;;;;5095494;28;20075;-61
2021/12/10 05:54:52;;;;;;;30.60;18.00;;;3.50;99.90;;;;;;5095328;28;20036;-61
2021/12/10 05:57:18;;;;;;;33.33;19.90;;;3.50;99.90;;;;;;5095297;28;20044;-61
2021/12/10 05:59:44;;;;;;;30.23;19.08;;;3.50;99.90;;;;;;5095256;28;20456;-62
2021/12/10 06:02:10;;;;;;;31.65;19.77;;;3.50;99.90;;;;;;5095352;28;20067;-61
2021/12/10 06:04:36;;;;;;;31.33;19.25;;;3.50;99.90;;;;;;5095387;28;20044;-62
2021/12/10 06:07:04;;;;;;;27.52;19.15;;;3.40;99.90;;;;;;5095139;28;20051;-62
2021/12/10 06:09:31;;;;;;;27.20;18.50;;;3.40;99.90;;;;;;5095149;28;20063;-62
2021/12/10 06:11:57;;;;;;;28.65;19.77;;;3.40;99.90;;;;;;5095151;28;20046;-61
2021/12/10 06:14:22;;;;;;;27.10;20.25;;;3.40;99.90;;;;;;5094974;28;20102;-62
2021/12/10 06:16:48;;;;;;;28.63;18.60;;;3.40;99.90;;;;;;5095392;28;20089;-62
2021/12/10 06:19:14;;;;;;;28.80;20.58;;;3.30;99.90;;;;;;5095117;28;20065;-62
2021/12/10 06:21:40;;;;;;;33.80;20.23;;;3.30;99.90;;;;;;5094854;28;20471;-62
2021/12/10 06:24:06;;;;;;;31.65;20.60;;;3.30;99.90;;;;;;5093223;28;20435;-61
2021/12/10 06:26:33;;;;;;;30.45;20.05;;;3.30;99.90;;;;;;5094761;28;20397;-62
2021/12/10 06:28:59;;;;;;;29.30;19.33;;;3.30;99.90;;;;;;5094752;28;20055;-62
2021/12/10 06:31:25;;;;;;;32.92;19.92;;;3.30;99.90;;;;;;5094753;28;20075;-62
2021/12/10 06:33:52;;;;;;;28.33;19.73;;;3.30;99.90;;;;;;5094656;28;20071;-61
2021/12/10 06:36:19;;;;;;;26.10;19.23;;;3.20;99.90;;;;;;5094575;28;20567;-61
2021/12/10 06:38:46;;;;;;;31.58;18.70;;;3.20;99.90;;;;;;5094606;28;20071;-61
2021/12/10 06:41:13;;;;;;;34.33;21.48;;;3.20;99.90;;;;;;5094467;28;20043;-61
2021/12/10 06:43:40;;;;;;;28.13;20.98;;;3.20;99.90;;;;;;5094702;28;20043;-62
2021/12/10 06:46:06;;;;;;;29.20;20.60;;;3.10;99.90;;;;;;5094464;28;20470;-61
2021/12/10 06:48:33;;;;;;;29.45;20.52;;;3.10;99.90;;;;;;5094580;28;20101;-61
2021/12/10 06:51:04;;;;;;;33.50;20.75;;;3.10;99.90;;;;;;5108763;28;20095;-61
2021/12/10 06:53:31;;;;;;;28.45;20.27;;;3.10;99.90;;;;;;5094251;28;20040;-61
2021/12/10 06:55:59;;;;;;;29.33;18.83;;;3.20;99.90;;;;;;5094239;28;20039;-61
2021/12/10 06:58:25;;;;;;;26.65;18.33;;;3.10;99.90;;;;;;5094521;28;20040;-61
2021/12/10 07:00:54;;;;;;;24.83;17.02;;;3.10;99.90;;;;;;5094174;28;20473;-61
2021/12/10 07:03:23;;;;;;;21.90;15.73;;;3.10;99.90;;;;;;5094057;28;20088;-61
2021/12/10 07:05:50;;;;;;;22.03;16.17;;;3.10;99.90;;;;;;5094367;28;20047;-61
2021/12/10 07:08:20;;;;;;;22.40;16.38;;;3.10;99.90;;;;;;5093952;28;20862;-61
2021/12/10 07:10:46;;;;;;;24.33;15.50;;;3.10;99.90;;;;;;5092824;28;20521;-61
2021/12/10 07:13:13;;;;;;;20.17;14.85;;;3.10;99.90;;;;;;5093840;28;20078;-61
2021/12/10 07:15:42;;;;;;;19.42;14.50;;;3.10;99.90;;;;;;5093935;28;20040;-61
2021/12/10 07:18:08;;;;;;;20.60;13.98;;;3.00;99.90;;;;;;5093714;28;20542;-62
2021/12/10 07:20:35;;;;;;;21.85;13.73;;;3.00;99.90;;;;;;5093679;28;20473;-61
2021/12/10 07:23:01;;;;;;;20.25;14.20;;;3.00;99.90;;;;;;5093672;28;20385;-62
2021/12/10 07:25:27;;;;;;;19.20;13.98;;;3.00;99.90;;;;;;5092323;28;20032;-62
2021/12/10 07:27:53;;;;;;;16.95;12.85;;;2.90;99.90;;;;;;5092610;28;20130;-61
2021/12/10 07:30:21;;;;;;;16.77;12.65;;;2.90;99.90;;;;;;5093967;28;20047;-61
2021/12/10 07:32:47;;;;;;;17.85;12.90;;;2.90;99.90;;;;;;5093567;28;20385;-61
2021/12/10 07:35:13;;;;;;;16.73;13.02;;;2.90;99.90;;;;;;5093643;28;20047;-61
2021/12/10 07:37:40;;;;;;;20.83;13.23;;;2.80;99.90;;;;;;5093609;28;20085;-61
2021/12/10 07:40:09;;;;;;;23.67;13.30;;;2.80;99.90;;;;;;5093699;28;20097;-61
2021/12/10 07:42:34;;;;;;;22.40;13.73;;;2.80;99.90;;;;;;5093508;28;20043;-60
2021/12/10 07:45:00;;;;;;;22.55;14.05;;;2.70;99.90;;;;;;5093574;28;20036;-61
2021/12/10 07:47:33;;;;;;;18.95;13.13;;;2.70;99.90;;;;;;5093389;28;20048;-61
2021/12/10 07:49:58;;;;;;;17.95;13.40;;;2.70;99.90;;;;;;5109040;28;20512;-60
2021/12/10 07:52:27;;;;;;;18.98;13.60;;;2.60;99.90;;;;;;5092965;28;20044;-61
2021/12/10 07:54:53;;;;;;;19.15;14.25;;;2.60;99.90;;;;;;5093153;28;20479;-61
2021/12/10 07:57:20;;;;;;;20.27;13.85;;;2.60;99.90;;;;;;5091650;28;20044;-61
2021/12/10 07:59:48;;;;;;;20.60;14.02;;;2.50;99.90;;;;;;5092965;28;20111;-60
2021/12/10 08:02:15;;;;;;;21.20;14.10;;;2.50;99.90;;;;;;5092557;28;20498;-61
2021/12/10 08:04:40;;;;;;;20.92;13.80;;;2.50;99.90;;;;;;5092848;28;20051;-61
2021/12/10 08:07:06;;;;;;;18.65;13.10;;;2.50;99.90;;;;;;5093064;28;20032;-61
2021/12/10 08:09:34;;;;;;;18.98;12.77;;;2.50;99.90;;;;;;5092865;28;20051;-60
2021/12/10 08:12:00;;;;;;;16.95;12.90;;;2.50;99.90;;;;;;5091737;28;20032;-60
2021/12/10 08:14:25;;;;;;;18.55;12.13;;;2.50;99.90;;;;;;5092764;28;20036;-61
2021/12/10 08:16:51;;;;;;;19.73;12.80;;;2.50;99.90;;;;;;5093069;28;20374;-61
2021/12/10 08:19:17;;;;;;;17.27;12.65;;;2.50;99.90;;;;;;5092756;28;20039;-61
2021/12/10 08:21:44;;;;;;;17.23;12.18;;;2.50;99.90;;;;;;5092515;28;20070;-61
2021/12/10 08:24:10;;;;;;;17.77;12.23;;;2.40;99.90;;;;;;5092769;28;20039;-61
2021/12/10 08:26:36;;;;;;;15.25;11.57;;;2.50;99.90;;;;;;5092692;28;20097;-61
2021/12/10 08:29:04;;;;;;;16.33;10.32;;;2.50;99.90;;;;;;5092425;28;20090;-61
2021/12/10 08:31:30;;;;;;;16.95;11.80;;;2.50;99.90;;;;;;5092805;28;20115;-61
2021/12/10 08:33:56;;;;;;;15.15;11.38;;;2.60;99.90;;;;;;5092248;28;20083;-61
2021/12/10 08:36:23;;;;;;;19.65;11.23;;;2.60;99.90;;;;;;5092467;28;20482;-61
2021/12/10 08:38:49;;;;;;;15.02;10.98;;;2.60;99.90;;;;;;5092304;28;20035;-61
2021/12/10 08:41:24;;;;;;;19.83;11.90;;;2.60;99.90;;;;;;5092318;28;20475;-61
2021/12/10 08:43:54;;;;;;;18.02;11.30;;;2.70;99.90;;;;;;5092336;28;20078;-61
2021/12/10 08:46:20;;;;;;;14.52;10.48;;;2.70;99.90;;;;;;5092157;28;20040;-61
2021/12/10 08:48:48;;;;;;;17.08;10.38;;;2.70;99.90;;;;;;5092337;28;20042;-61
2021/12/10 08:51:29;;;;;;;16.77;9.82;;;2.70;99.90;;;;;;5108146;28;20048;-62
2021/12/10 08:53:55;;;;;;;15.90;9.80;;;2.80;99.90;;;;;;5092020;28;20036;-61
2021/12/10 08:56:21;;;;;;;16.63;9.90;;;2.90;99.90;;;;;;5092193;28;20075;-61
2021/12/10 08:58:47;;;;;;;12.50;9.60;;;2.90;99.90;;;;;;5092058;28;20040;-61
2021/12/10 09:01:20;;;;;;;13.13;9.30;;;2.90;99.90;;;;;;5091984;28;20040;-61
2021/12/10 09:03:49;;;;;;;14.40;9.00;;;2.90;99.90;;;;;;5092113;28;20406;-61
2021/12/10 09:06:17;;;;;;;15.45;10.38;;;3.00;99.90;;;;;;5091844;28;20051;-61
2021/12/10 09:08:43;;;;;;;16.95;9.43;;;3.00;99.90;;;;;;5091928;28;20075;-61
2021/12/10 09:11:12;;;;;;;13.27;9.25;;;3.00;99.90;;;;;;5091788;28;20075;-61
2021/12/10 09:13:38;;;;;;;13.70;8.60;;;3.00;99.90;;;;;;5093506;28;20040;-61
2021/12/10 09:16:08;;;;;;;12.27;8.05;;;3.10;99.90;;;;;;5096324;28;20044;-61
2021/12/10 09:18:38;;;;;;;14.55;9.02;;;3.10;99.90;;;;;;5095847;28;20054;-61
2021/12/10 09:21:06;;;;;;;17.23;9.10;;;3.20;99.90;;;;;;5096163;28;20047;-61
2021/12/10 09:23:32;;;;;;;14.25;8.88;;;3.20;99.90;;;;;;5095989;28;20044;-61
2021/12/10 09:26:01;;;;;;;13.07;8.95;;;3.30;99.90;;;;;;5095902;28;20044;-61
2021/12/10 09:28:27;;;;;;;15.52;8.70;;;3.30;99.90;;;;;;5095957;28;20055;-61
2021/12/10 09:30:56;;;;;;;13.20;8.35;;;3.40;99.90;;;;;;5095809;28;20474;-61
2021/12/10 09:33:22;;;;;;;14.20;8.13;;;3.50;99.90;;;;;;5095713;28;20075;-61
2021/12/10 09:35:48;;;;;;;12.10;8.25;;;3.50;99.90;;;;;;5095755;28;20474;-61
2021/12/10 09:38:15;;;;;;;13.02;8.60;;;3.60;99.90;;;;;;5095664;28;20032;-61
2021/12/10 09:40:43;;;;;;;11.30;8.40;;;3.60;99.90;;;;;;5095942;28;20051;-61
2021/12/10 09:43:11;;;;;;;12.07;8.00;;;3.60;99.90;;;;;;5095641;28;20093;-61
2021/12/10 09:45:39;;;;;;;13.55;9.00;;;3.70;99.90;;;;;;5094376;28;20402;-61
2021/12/10 09:48:08;;;;;;;8.98;6.70;;;3.80;99.90;;;;;;5095626;28;20401;-61
2021/12/10 09:50:38;;;;;;;12.30;7.47;;;3.90;99.90;;;;;;5094430;28;20088;-61
2021/12/10 09:53:05;;;;;;;12.57;7.45;;;4.00;99.90;;;;;;5095407;28;20036;-61
2021/12/10 09:55:31;;;;;;;11.63;7.32;;;4.00;99.90;;;;;;5095628;28;20032;-61
2021/12/10 09:57:57;;;;;;;11.27;7.90;;;4.00;99.90;;;;;;5095531;28;20126;-62
2021/12/10 10:00:29;;;;;;;10.13;7.07;;;4.10;99.90;;;;;;5095443;28;20112;-61
2021/12/10 10:02:56;;;;;;;13.63;7.47;;;4.10;99.90;;;;;;5095098;28;20477;-61
2021/12/10 10:05:27;;;;;;;12.32;8.27;;;4.20;99.90;;;;;;5095303;28;20054;-61
2021/12/10 10:07:57;;;;;;;10.07;6.78;;;4.20;99.90;;;;;;5095173;28;20544;-61
2021/12/10 10:10:24;;;;;;;12.02;7.57;;;4.20;99.90;;;;;;5095362;28;20185;-61
2021/12/10 10:12:52;;;;;;;11.75;6.88;;;4.30;99.90;;;;;;5095236;28;20105;-61
2021/12/10 10:15:24;;;;;;;16.02;7.97;;;4.30;99.90;;;;;;5094895;28;20732;-61
2021/12/10 10:17:50;;;;;;;12.05;7.57;;;4.40;99.90;;;;;;5094975;28;20032;-61
2021/12/10 10:20:17;;;;;;;14.57;7.05;;;4.40;99.90;;;;;;5095168;28;20028;-61
2021/12/10 10:22:44;;;;;;;11.27;7.55;;;4.40;99.90;;;;;;5093720;28;20554;-62
2021/12/10 10:25:11;;;;;;;13.88;6.30;;;4.50;99.90;;;;;;5095009;28;20040;-61
2021/12/10 10:27:40;;;;;;;10.80;6.50;;;4.50;99.90;;;;;;5094712;28;20040;-62
2021/12/10 10:30:09;;;;;;;10.77;7.05;;;4.60;99.90;;;;;;5094836;28;20046;-62
2021/12/10 10:32:35;;;;;;;;;;;4.60;99.90;;;;;;5095247;28;20036;-61
2021/12/10 10:35:07;;;;;;;11.45;6.95;;;4.70;99.90;;;;;;5093378;28;19930;-61
2021/12/10 10:37:33;;;;;;;11.80;6.20;;;4.80;99.90;;;;;;5095028;28;20036;-62
2021/12/10 10:40:00;;;;;;;10.80;6.85;;;4.90;99.90;;;;;;5094841;28;20124;-61
2021/12/10 10:42:28;;;;;;;10.52;6.95;;;4.90;99.90;;;;;;5094390;28;20466;-61
2021/12/10 10:45:02;;;;;;;13.02;6.55;;;5.00;99.90;;;;;;5094792;28;20082;-62
2021/12/10 10:47:28;;;;;;;8.60;5.97;;;5.10;99.90;;;;;;5094580;28;20046;-61
2021/12/10 10:49:59;;;;;;;8.95;6.68;;;5.10;99.90;;;;;;5094335;28;20452;-61
2021/12/10 10:52:37;;;;;;;7.97;6.05;;;5.10;99.90;;;;;;5094262;28;20051;-61
2021/12/10 10:55:11;;;;;;;7.47;5.72;;;5.10;99.90;;;;;;5094486;28;20083;-61
2021/12/10 10:57:46;;;;;;;10.98;6.82;;;5.20;99.90;;;;;;5094180;28;20389;-61
2021/12/10 11:00:31;;;;;;;8.55;6.18;;;5.20;99.90;;;;;;5094214;28;20402;-61
2021/12/10 11:03:03;;;;;;;9.88;5.97;;;5.30;99.90;;;;;;5094122;28;20147;-61
2021/12/10 11:05:30;;;;;;;11.55;6.28;;;5.30;99.90;;;;;;5094107;28;20056;-61
2021/12/10 11:08:00;;;;;;;6.78;6.05;;;5.30;99.90;;;;;;5093327;28;20071;-60
2021/12/10 11:10:27;;;;;;;10.35;5.80;;;5.30;99.90;;;;;;5094259;28;20047;-62
2021/12/10 11:13:06;;;;;;;8.65;6.00;;;5.40;99.90;;;;;;5094262;28;20398;-62
2021/12/10 11:15:31;;;;;;;9.32;6.00;;;5.50;99.90;;;;;;5093977;28;20040;-60
2021/12/10 11:17:57;;;;;;;9.48;5.40;;;5.50;99.90;;;;;;5093959;28;20028;-61
2021/12/10 11:20:25;;;;;;;8.40;5.85;;;5.50;99.90;;;;;;5093773;28;20078;-61
2021/12/10 11:22:58;;;;;;;9.77;5.20;;;5.40;99.90;;;;;;5093857;28;20040;-61
2021/12/10 11:25:30;;;;;;;9.18;5.70;;;5.40;99.90;;;;;;5093807;28;20047;-61
2021/12/10 11:28:11;;;;;;;9.02;5.45;;;5.40;99.90;;;;;;5093808;28;20040;-61
2021/12/10 11:30:46;;;;;;;8.45;5.75;;;5.50;99.90;;;;;;5093736;28;20048;-61
2021/12/10 11:33:19;;;;;;;10.07;5.28;;;5.50;99.90;;;;;;5093987;28;20044;-61
2021/12/10 11:35:49;;;;;;;8.93;6.00;;;5.60;99.90;;;;;;5093114;28;20040;-61
2021/12/10 11:38:24;;;;;;;7.95;4.97;;;5.60;99.90;;;;;;5093350;28;20496;-61
2021/12/10 11:41:10;;;;;;;9.00;5.22;;;5.70;99.90;;;;;;5093405;28;20067;-61
2021/12/10 11:43:52;;;;;;;7.65;4.55;;;5.70;99.90;;;;;;5093324;28;20042;-62
2021/12/10 11:49:13;;;;;;;7.53;5.10;;;5.70;99.90;;;;;;5093246;28;20430;-61
2021/12/10 11:51:41;;;;;;;8.20;4.40;;;5.80;99.90;;;;;;5093265;28;20043;-61
2021/12/10 11:54:24;;;;;;;8.88;4.90;;;5.90;99.90;;;;;;5093108;28;20548;-61
2021/12/10 11:57:15;;;;;;;6.28;4.10;;;6.00;99.90;;;;;;5093250;28;20040;-61
2021/12/10 11:59:50;;;;;;;6.82;4.75;;;6.00;99.90;;;;;;5090244;28;20051;-61
2021/12/10 12:02:30;;;;;;;6.40;4.55;;;5.90;99.90;;;;;;5093039;28;20401;-61
2021/12/10 12:05:13;;;;;;;9.80;4.38;;;5.90;99.90;;;;;;5092858;28;20044;-61
2021/12/10 12:07:44;;;;;;;6.30;4.15;;;5.90;99.90;;;;;;5093111;28;20047;-61
2021/12/10 12:10:23;;;;;;;11.07;4.32;;;5.80;99.90;;;;;;5092877;28;20047;-61
2021/12/10 12:12:59;;;;;;;7.03;4.10;;;5.80;99.90;;;;;;5092671;28;20067;-60
2021/12/10 12:15:28;;;;;;;8.63;4.40;;;5.80;99.90;;;;;;5092626;28;20072;-61
2021/12/10 12:17:59;;;;;;;6.30;3.88;;;5.70;99.90;;;;;;5092703;28;20040;-61
2021/12/10 12:20:40;;;;;;;7.60;4.10;;;5.60;99.90;;;;;;5092582;28;20043;-61
2021/12/10 12:26:28;;;;;;;7.03;4.00;;;5.50;99.90;;;;;;5070266;28;20923;-60
2021/12/10 12:29:13;;;;;;;7.85;4.60;;;5.40;99.90;;;;;;5070139;28;20044;-60
2021/12/10 12:31:59;;;;;;;7.05;4.53;;;5.40;99.90;;;;;;5070212;28;20040;-61
2021/12/10 12:34:27;;;;;;;6.68;4.28;;;5.40;99.90;;;;;;5069820;28;20135;-61
2021/12/10 12:36:58;;;;;;;5.95;3.50;;;5.30;99.90;;;;;;5070330;28;20052;-60
2021/12/10 12:39:41;;;;;;;6.60;4.53;;;5.30;99.90;;;;;;5069940;28;20067;-61
2021/12/10 12:42:22;;;;;;;7.10;4.18;;;5.30;99.90;;;;;;5069943;28;20052;-61
2021/12/10 12:44:54;;;;;;;12.30;4.63;;;5.30;99.90;;;;;;5069961;28;20076;-61
2021/12/10 12:47:32;;;;;;;6.38;4.38;;;5.30;99.90;;;;;;5069450;28;20434;-60
2021/12/10 12:50:12;;;;;;;11.23;4.30;;;5.30;99.90;;;;;;5069592;28;20498;-61
2021/12/10 12:52:42;;;;;;;11.35;4.68;;;5.30;99.90;;;;;;5069891;28;20037;-61
2021/12/10 12:55:30;;;;;;;6.10;4.80;;;5.20;99.90;;;;;;5069548;28;20529;-60
2021/12/10 12:58:11;;;;;;;8.57;4.38;;;5.20;99.90;;;;;;5069847;28;20044;-61
2021/12/10 13:00:41;;;;;;;7.47;3.88;;;5.20;99.90;;;;;;5069423;28;20075;-61
2021/12/10 13:03:11;;;;;;;7.88;3.72;;;5.10;99.90;;;;;;5091064;28;20504;-60
2021/12/10 13:05:48;;;;;;;6.03;3.60;;;5.10;99.90;;;;;;5092311;28;20051;-61
2021/12/10 13:08:19;;;;;;;8.52;4.50;;;5.10;99.90;;;;;;5092024;28;20542;-60